createdAt,value
2022-10-18T00:02:03.426Z,12.46
2022-10-18T00:04:29.832Z,12.58
2022-10-18T00:06:57.408Z,12.43
2022-10-18T00:09:23.809Z,12.26
2022-10-18T00:11:52.192Z,12.32
2022-10-18T00:14:18.525Z,12.38
2022-10-18T00:16:44.841Z,12.17
2022-10-18T00:19:11.392Z,12.37
2022-10-18T00:21:37.804Z,12.45
2022-10-18T00:24:04.498Z,12.40
2022-10-18T00:26:31.448Z,12.30
2022-10-18T00:29:01.974Z,12.36
2022-10-18T00:31:29.980Z,12.11
2022-10-18T00:33:58.134Z,12.15
2022-10-18T00:36:24.944Z,12.02
2022-10-18T00:38:51.653Z,11.99
2022-10-18T00:41:20.091Z,12.17
2022-10-18T00:43:55.300Z,12.12
2022-10-18T00:46:23.388Z,11.98
2022-10-18T00:48:50.597Z,12.11
2022-10-18T00:51:18.536Z,11.93
2022-10-18T00:53:45.169Z,11.97
2022-10-18T00:56:12.299Z,11.99
2022-10-18T00:58:38.885Z,12.12
2022-10-18T01:01:05.344Z,12.12
2022-10-18T01:03:32.247Z,12.08
2022-10-18T01:05:58.869Z,11.95
2022-10-18T01:08:34.460Z,11.98
2022-10-18T01:11:24.054Z,12.14
2022-10-18T01:13:56.247Z,11.84
2022-10-18T01:16:32.917Z,11.93
2022-10-18T01:19:20.580Z,12.08
2022-10-18T01:21:53.053Z,12.11
2022-10-18T01:24:26.429Z,11.92
2022-10-18T01:27:01.007Z,11.77
2022-10-18T01:29:37.801Z,11.87
2022-10-18T01:32:10.457Z,11.92
2022-10-18T01:34:38.712Z,11.86
2022-10-18T01:37:07.407Z,11.92
2022-10-18T01:39:36.526Z,11.76
2022-10-18T01:42:05.713Z,11.86
2022-10-18T01:44:32.864Z,11.88
2022-10-18T01:46:59.769Z,11.89
2022-10-18T01:49:26.739Z,11.82
2022-10-18T01:51:53.426Z,11.66
2022-10-18T01:54:24.040Z,11.57
2022-10-18T01:57:08.615Z,11.65
2022-10-18T01:59:34.942Z,11.48
2022-10-18T02:02:07.470Z,11.72
2022-10-18T02:04:40.873Z,11.76
2022-10-18T02:07:15.053Z,11.59
2022-10-18T02:09:46.685Z,11.63
2022-10-18T02:12:13.904Z,11.53
2022-10-18T02:14:41.029Z,11.62
2022-10-18T02:17:10.043Z,11.73
2022-10-18T02:19:39.367Z,11.78
2022-10-18T02:22:07.565Z,11.80
2022-10-18T02:24:35.675Z,11.81
2022-10-18T02:27:07.589Z,11.65
2022-10-18T02:29:34.610Z,11.63
2022-10-18T02:32:14.807Z,11.66
2022-10-18T02:34:46.642Z,11.68
2022-10-18T02:37:15.313Z,11.66
2022-10-18T02:39:46.023Z,11.43
2022-10-18T02:42:13.529Z,11.34
2022-10-18T02:44:39.911Z,11.32
2022-10-18T02:47:07.143Z,11.46
2022-10-18T02:49:33.511Z,11.48
2022-10-18T02:52:00.093Z,11.55
2022-10-18T02:54:26.493Z,11.53
2022-10-18T02:56:52.817Z,11.46
2022-10-18T02:59:19.467Z,11.49
2022-10-18T03:01:46.837Z,11.40
2022-10-18T03:04:13.271Z,11.43
2022-10-18T03:06:40.701Z,11.34
2022-10-18T03:09:07.360Z,11.34
2022-10-18T03:11:34.778Z,11.32
2022-10-18T03:14:01.131Z,11.23
2022-10-18T03:16:27.559Z,11.06
2022-10-18T03:18:53.962Z,11.22
2022-10-18T03:21:20.292Z,11.33
2022-10-18T03:23:46.622Z,11.38
2022-10-18T03:26:12.937Z,11.35
2022-10-18T03:28:39.291Z,11.40
2022-10-18T03:31:05.780Z,11.43
2022-10-18T03:33:32.588Z,11.34
2022-10-18T03:35:58.967Z,11.27
2022-10-18T03:38:25.355Z,11.41
2022-10-18T03:40:51.753Z,11.38
2022-10-18T03:43:18.228Z,11.36
2022-10-18T03:45:44.677Z,11.26
2022-10-18T03:48:11.007Z,11.27
2022-10-18T03:50:37.410Z,11.32
2022-10-18T03:53:03.880Z,11.29
2022-10-18T03:55:30.286Z,11.39
2022-10-18T03:57:56.752Z,11.50
2022-10-18T04:00:23.127Z,11.50
2022-10-18T04:02:52.063Z,11.58
2022-10-18T04:05:23.807Z,11.52
2022-10-18T04:07:50.403Z,11.45
2022-10-18T04:10:16.769Z,11.42
2022-10-18T04:12:43.107Z,11.43
2022-10-18T04:15:10.678Z,11.57
2022-10-18T04:17:37.077Z,11.58
2022-10-18T04:20:03.504Z,11.45
2022-10-18T04:22:29.900Z,11.29
2022-10-18T04:24:56.908Z,11.45
2022-10-18T04:27:23.328Z,11.57
2022-10-18T04:29:50.837Z,11.76
2022-10-18T04:32:17.164Z,11.69
2022-10-18T04:34:45.699Z,11.75
2022-10-18T04:37:12.102Z,11.80
2022-10-18T04:39:38.508Z,11.80
2022-10-18T04:42:04.858Z,11.76
2022-10-18T04:44:31.291Z,11.76
2022-10-18T04:46:57.624Z,11.61
2022-10-18T04:49:24.019Z,11.72
2022-10-18T04:51:50.331Z,11.73
2022-10-18T04:54:16.807Z,11.71
2022-10-18T04:56:43.120Z,11.71
2022-10-18T04:59:09.498Z,11.77
2022-10-18T05:01:36.045Z,11.86
2022-10-18T05:04:02.468Z,11.86
2022-10-18T05:06:30.826Z,11.99
2022-10-18T05:08:57.154Z,11.97
2022-10-18T05:11:23.480Z,11.93
2022-10-18T05:13:50.927Z,11.77
2022-10-18T05:16:17.751Z,11.90
2022-10-18T05:18:44.265Z,11.75
2022-10-18T05:21:10.872Z,11.74
2022-10-18T05:23:37.186Z,11.81
2022-10-18T05:26:04.467Z,11.78
2022-10-18T05:28:39.169Z,11.77
2022-10-18T05:31:07.135Z,11.75
2022-10-18T05:33:33.795Z,11.81
2022-10-18T05:36:00.242Z,11.81
2022-10-18T05:38:27.639Z,11.90
2022-10-18T05:40:54.028Z,11.91
2022-10-18T05:43:20.801Z,11.98
2022-10-18T05:45:50.872Z,12.02
2022-10-18T05:48:17.743Z,12.04
2022-10-18T05:50:45.098Z,12.04
2022-10-18T05:53:31.831Z,12.07
2022-10-18T05:56:04.169Z,12.09
2022-10-18T05:58:30.486Z,12.10
2022-10-18T06:01:00.867Z,12.05
2022-10-18T06:03:27.707Z,12.11
2022-10-18T06:05:58.590Z,12.04
2022-10-18T06:08:25.055Z,12.04
2022-10-18T06:10:51.376Z,12.04
2022-10-18T06:13:17.687Z,12.08
2022-10-18T06:15:44.067Z,12.06
2022-10-18T06:18:10.473Z,12.05
2022-10-18T06:20:36.922Z,11.94
2022-10-18T06:23:03.455Z,11.86
2022-10-18T06:25:29.779Z,12.04
2022-10-18T06:27:56.122Z,12.10
2022-10-18T06:30:22.462Z,12.17
2022-10-18T06:32:48.831Z,12.13
2022-10-18T06:35:16.283Z,12.05
2022-10-18T06:40:13.876Z,12.14
2022-10-18T06:42:40.527Z,12.20
2022-10-18T06:45:07.149Z,12.20
2022-10-18T06:47:33.502Z,12.18
2022-10-18T06:49:59.918Z,12.07
2022-10-18T06:52:26.539Z,12.11
2022-10-18T06:54:53.801Z,12.19
2022-10-18T06:57:20.595Z,12.19
2022-10-18T06:59:47.089Z,12.28
2022-10-18T07:02:14.967Z,12.31
2022-10-18T07:04:41.293Z,12.41
2022-10-18T07:07:07.652Z,12.37
2022-10-18T07:09:38.058Z,12.40
2022-10-18T07:12:04.479Z,12.53
2022-10-18T07:14:30.801Z,12.54
2022-10-18T07:16:58.988Z,12.59
2022-10-18T07:19:25.316Z,12.63
2022-10-18T07:21:51.642Z,12.44
2022-10-18T07:24:17.994Z,12.59
2022-10-18T07:26:44.413Z,12.70
2022-10-18T07:29:11.751Z,12.82
2022-10-18T07:31:40.957Z,12.96
2022-10-18T07:34:08.529Z,12.86
2022-10-18T07:36:35.169Z,13.00
2022-10-18T07:39:01.471Z,13.13
2022-10-18T07:41:28.947Z,13.13
2022-10-18T07:43:55.270Z,13.10
2022-10-18T07:46:22.190Z,13.13
2022-10-18T07:48:49.118Z,13.28
2022-10-18T07:51:15.883Z,13.27
2022-10-18T07:53:42.533Z,13.50
2022-10-18T07:56:15.692Z,13.58
2022-10-18T07:58:42.764Z,13.60
2022-10-18T08:01:09.506Z,13.54
2022-10-18T08:03:36.703Z,13.92
2022-10-18T08:06:04.344Z,14.00
2022-10-18T08:08:30.743Z,14.48
2022-10-18T08:11:01.823Z,14.53
2022-10-18T08:13:28.148Z,14.43
2022-10-18T08:15:59.153Z,14.53
2022-10-18T08:18:25.480Z,14.42
2022-10-18T08:20:51.825Z,14.75
2022-10-18T08:23:18.160Z,15.01
2022-10-18T08:25:44.589Z,15.67
2022-10-18T08:28:10.975Z,16.59
2022-10-18T08:30:37.472Z,16.10
2022-10-18T08:33:03.869Z,16.68
2022-10-18T08:35:31.733Z,16.41
2022-10-18T08:37:58.439Z,16.08
2022-10-18T08:40:26.452Z,15.82
2022-10-18T08:42:54.735Z,15.68
2022-10-18T08:45:37.533Z,15.57
2022-10-18T08:48:12.050Z,15.54
2022-10-18T08:50:39.120Z,15.60
2022-10-18T08:53:05.438Z,15.71
2022-10-18T08:55:36.206Z,15.63
2022-10-18T08:58:03.779Z,15.70
2022-10-18T09:00:34.741Z,15.75
2022-10-18T09:03:04.635Z,15.85
2022-10-18T09:05:36.219Z,15.79
2022-10-18T09:08:02.560Z,15.90
2022-10-18T09:10:41.095Z,16.10
2022-10-18T09:13:18.723Z,16.32
2022-10-18T09:15:57.282Z,16.92
2022-10-18T09:18:42.102Z,18.08
2022-10-18T09:21:08.625Z,18.44
2022-10-18T09:23:48.079Z,18.49
2022-10-18T09:26:16.828Z,19.68
2022-10-18T09:28:49.741Z,19.65
2022-10-18T09:31:16.750Z,19.57
2022-10-18T09:33:43.114Z,19.79
2022-10-18T09:36:11.965Z,20.28
2022-10-18T09:38:46.367Z,20.38
2022-10-18T09:41:21.911Z,20.21
2022-10-18T09:43:48.229Z,20.29
2022-10-18T09:46:15.987Z,21.17
2022-10-18T09:49:00.900Z,20.90
2022-10-18T09:51:30.709Z,21.20
2022-10-18T09:54:20.125Z,21.22
2022-10-18T09:59:32.315Z,21.46
2022-10-18T10:01:58.706Z,21.40
2022-10-18T10:04:25.069Z,21.56
2022-10-18T10:06:52.561Z,21.47
2022-10-18T10:09:24.625Z,21.55
2022-10-18T10:11:51.612Z,21.21
2022-10-18T10:14:26.605Z,20.79
2022-10-18T10:17:03.576Z,20.63
2022-10-18T10:19:32.790Z,21.09
2022-10-18T10:22:10.418Z,21.73
2022-10-18T10:24:46.021Z,21.80
2022-10-18T10:27:18.352Z,21.48
2022-10-18T10:29:47.517Z,21.70
2022-10-18T10:32:15.380Z,21.77
2022-10-18T10:34:44.633Z,21.66
2022-10-18T10:37:23.483Z,22.05
2022-10-18T10:40:17.844Z,22.20
2022-10-18T10:42:59.986Z,22.37
2022-10-18T10:45:41.325Z,22.17
2022-10-18T10:48:13.009Z,22.14
2022-10-18T10:50:55.193Z,21.99
2022-10-18T10:53:34.767Z,22.21
2022-10-18T10:56:01.641Z,22.01
2022-10-18T10:58:33.517Z,21.97
2022-10-18T11:01:17.081Z,22.23
2022-10-18T11:03:47.795Z,22.13
2022-10-18T11:06:29.743Z,22.23
2022-10-18T11:08:58.585Z,22.28
2022-10-18T11:11:31.871Z,22.24
2022-10-18T11:17:09.006Z,22.53
2022-10-18T11:19:42.683Z,22.85
2022-10-18T11:22:12.385Z,22.71
2022-10-18T11:24:39.165Z,22.47
2022-10-18T11:27:14.564Z,22.14
2022-10-18T11:29:49.328Z,22.21
2022-10-18T11:32:30.680Z,22.22
2022-10-18T11:35:10.993Z,22.01
2022-10-18T11:37:58.083Z,21.96
2022-10-18T11:40:24.417Z,22.02
2022-10-18T11:43:10.164Z,21.95
2022-10-18T11:45:36.477Z,21.75
2022-10-18T11:48:15.015Z,21.51
2022-10-18T11:50:41.323Z,21.35
2022-10-18T11:53:13.221Z,21.08
2022-10-18T11:55:49.107Z,21.20
2022-10-18T11:58:26.324Z,21.13
2022-10-18T12:00:56.963Z,21.00
2022-10-18T12:03:26.343Z,21.24
2022-10-18T12:05:53.702Z,21.05
2022-10-18T12:08:34.334Z,20.81
2022-10-18T12:11:05.786Z,20.82
2022-10-18T12:13:38.988Z,20.77
2022-10-18T12:16:06.881Z,20.46
2022-10-18T12:18:35.333Z,20.22
2022-10-18T12:21:02.284Z,20.31
2022-10-18T12:23:38.463Z,19.89
2022-10-18T12:26:06.162Z,19.84
2022-10-18T12:28:32.499Z,19.68
2022-10-18T12:31:02.293Z,19.54
2022-10-18T12:33:33.847Z,19.48
2022-10-18T12:36:02.975Z,19.32
2022-10-18T12:38:34.336Z,19.32
2022-10-18T12:41:01.020Z,19.34
2022-10-18T12:43:34.034Z,19.09
2022-10-18T12:46:01.167Z,18.87
2022-10-18T12:48:32.468Z,18.78
2022-10-18T12:51:00.845Z,18.77
2022-10-18T12:53:27.996Z,18.58
2022-10-18T12:55:54.702Z,18.66
2022-10-18T12:58:21.014Z,18.45
2022-10-18T13:00:47.983Z,18.40
2022-10-18T13:03:16.625Z,18.43
2022-10-18T13:05:54.831Z,18.73
2022-10-18T13:08:28.017Z,18.59
2022-10-18T13:11:10.007Z,18.20
2022-10-18T13:13:45.817Z,18.33
2022-10-18T13:16:24.480Z,18.01
2022-10-18T13:18:51.095Z,18.10
2022-10-18T13:21:26.825Z,18.23
2022-10-18T13:24:20.056Z,18.13
2022-10-18T13:26:46.381Z,18.22
2022-10-18T13:29:30.569Z,18.09
2022-10-18T13:32:05.649Z,17.84
2022-10-18T13:34:34.862Z,17.89
2022-10-18T13:37:02.959Z,17.91
2022-10-18T13:39:30.218Z,17.98
2022-10-18T13:41:57.954Z,17.99
2022-10-18T13:44:28.611Z,17.96
2022-10-18T13:46:54.927Z,17.87
2022-10-18T13:49:39.583Z,17.54
2022-10-18T13:52:05.888Z,17.88
2022-10-18T13:54:38.447Z,17.68
2022-10-18T13:57:07.553Z,17.82
2022-10-18T13:59:42.988Z,17.96
2022-10-18T14:02:36.429Z,18.00
2022-10-18T14:05:23.787Z,18.16
2022-10-18T14:07:52.896Z,18.13
2022-10-18T14:10:33.342Z,18.00
2022-10-18T14:13:17.349Z,18.00
2022-10-18T14:15:45.238Z,17.93
2022-10-18T14:18:15.102Z,17.67
2022-10-18T14:21:01.474Z,17.77
2022-10-18T14:23:41.614Z,17.95
2022-10-18T14:26:09.719Z,17.89
2022-10-18T14:28:58.406Z,17.85
2022-10-18T14:31:22.780Z,17.94
2022-10-18T14:33:57.571Z,17.92
2022-10-18T14:36:26.203Z,18.10
2022-10-18T14:39:00.340Z,18.16
2022-10-18T14:41:28.003Z,18.11
2022-10-18T14:44:11.691Z,18.27
2022-10-18T14:46:45.269Z,18.22
2022-10-18T14:49:12.879Z,18.17
2022-10-18T14:51:41.902Z,18.17
2022-10-18T14:56:45.858Z,18.23
2022-10-18T14:59:32.313Z,18.26
2022-10-18T15:02:00.019Z,18.30
2022-10-18T15:04:32.993Z,18.24
2022-10-18T15:07:01.247Z,18.10
2022-10-18T15:11:57.749Z,18.08
2022-10-18T15:14:25.972Z,18.00
2022-10-18T15:16:54.844Z,17.90
2022-10-18T15:19:24.282Z,17.79
2022-10-18T15:21:59.179Z,17.78
2022-10-18T15:24:36.240Z,17.69
2022-10-18T15:27:10.431Z,17.77
2022-10-18T15:29:37.817Z,17.78
2022-10-18T15:32:07.037Z,17.83
2022-10-18T15:34:33.361Z,17.80
2022-10-18T15:37:00.696Z,17.60
2022-10-18T15:39:29.336Z,17.75
2022-10-18T15:41:58.351Z,17.64
2022-10-18T15:44:26.477Z,17.62
2022-10-18T15:46:54.766Z,17.61
2022-10-18T15:49:41.405Z,17.66
2022-10-18T15:52:07.805Z,17.57
2022-10-18T15:54:34.123Z,17.55
2022-10-18T15:57:06.851Z,17.48
2022-10-18T15:59:33.281Z,17.44
2022-10-18T16:02:01.049Z,17.38
2022-10-18T16:04:32.786Z,17.30
2022-10-18T16:07:00.138Z,17.25
2022-10-18T16:09:27.856Z,17.19
2022-10-18T16:11:57.266Z,17.16
2022-10-18T16:14:24.404Z,16.94
2022-10-18T16:16:53.969Z,17.00
2022-10-18T16:19:22.584Z,16.84
2022-10-18T16:21:49.440Z,16.92
2022-10-18T16:24:15.974Z,16.94
2022-10-18T16:26:42.348Z,16.84
2022-10-18T16:29:14.516Z,16.79
2022-10-18T16:31:41.639Z,16.73
2022-10-18T16:34:11.027Z,16.67
2022-10-18T16:36:37.823Z,16.56
2022-10-18T16:39:07.646Z,16.50
2022-10-18T16:41:34.207Z,16.59
2022-10-18T16:44:00.573Z,16.30
2022-10-18T16:46:28.410Z,16.40
2022-10-18T16:48:55.530Z,16.33
2022-10-18T16:51:21.905Z,16.12
2022-10-18T16:53:48.545Z,16.25
2022-10-18T16:56:16.964Z,16.40
2022-10-18T16:58:43.544Z,16.38
2022-10-18T17:01:14.221Z,16.05
2022-10-18T17:03:41.029Z,16.08
2022-10-18T17:06:14.984Z,16.15
2022-10-18T17:08:41.462Z,16.21
2022-10-18T17:11:09.791Z,16.24
2022-10-18T17:13:36.202Z,16.28
2022-10-18T17:16:03.793Z,16.25
2022-10-18T17:18:33.507Z,16.16
2022-10-18T17:21:03.096Z,16.20
2022-10-18T17:23:30.140Z,16.14
2022-10-18T17:26:05.523Z,16.13
2022-10-18T17:28:35.380Z,16.10
2022-10-18T17:31:01.776Z,16.08
2022-10-18T17:33:28.090Z,16.11
2022-10-18T17:35:54.527Z,16.01
2022-10-18T17:38:20.859Z,15.88
2022-10-18T17:40:47.239Z,15.93
2022-10-18T17:43:14.557Z,15.97
2022-10-18T17:45:48.152Z,15.97
2022-10-18T17:48:14.568Z,16.04
2022-10-18T17:50:41.270Z,15.63
2022-10-18T17:53:07.604Z,15.56
2022-10-18T17:55:35.043Z,15.73
2022-10-18T17:58:01.360Z,15.62
2022-10-18T18:00:29.853Z,15.72
2022-10-18T18:02:59.837Z,15.62
2022-10-18T18:05:29.699Z,15.51
2022-10-18T18:07:56.906Z,15.51
2022-10-18T18:10:26.418Z,15.60
2022-10-18T18:12:52.738Z,15.59
2022-10-18T18:15:19.061Z,15.44
2022-10-18T18:17:56.620Z,15.26
2022-10-18T18:20:24.591Z,15.12
2022-10-18T18:22:51.379Z,15.09
2022-10-18T18:25:17.883Z,15.32
2022-10-18T18:27:44.392Z,15.46
2022-10-18T18:30:11.004Z,15.49
2022-10-18T18:32:37.507Z,15.38
2022-10-18T18:35:04.203Z,15.46
2022-10-18T18:37:30.641Z,15.41
2022-10-18T18:39:57.188Z,15.47
2022-10-18T18:42:23.736Z,15.44
2022-10-18T18:44:50.165Z,15.40
2022-10-18T18:49:43.132Z,15.63
2022-10-18T18:52:09.529Z,15.69
2022-10-18T18:54:35.994Z,15.74
2022-10-18T18:57:05.270Z,15.70
2022-10-18T18:59:31.642Z,15.83
2022-10-18T19:01:57.995Z,15.85
2022-10-18T19:04:24.316Z,15.73
2022-10-18T19:06:50.741Z,15.75
2022-10-18T19:09:22.191Z,15.83
2022-10-18T19:11:49.894Z,15.78
2022-10-18T19:14:16.330Z,15.85
2022-10-18T19:16:47.209Z,15.85
2022-10-18T19:19:15.097Z,15.91
2022-10-18T19:21:42.770Z,15.82
2022-10-18T19:24:09.182Z,15.82
2022-10-18T19:26:37.429Z,15.91
2022-10-18T19:29:05.800Z,15.91
2022-10-18T19:31:33.483Z,16.00
2022-10-18T19:34:00.190Z,16.01
2022-10-18T19:36:27.254Z,15.99
2022-10-18T19:38:53.579Z,15.92
2022-10-18T19:41:20.042Z,15.97
2022-10-18T19:43:46.434Z,15.98
2022-10-18T19:46:12.828Z,15.80
2022-10-18T19:48:39.238Z,15.86
2022-10-18T19:51:07.951Z,15.85
2022-10-18T19:53:35.899Z,15.75
2022-10-18T19:56:03.739Z,15.77
2022-10-18T19:58:30.164Z,15.72
2022-10-18T20:00:57.054Z,15.77
2022-10-18T20:03:24.198Z,15.73
2022-10-18T20:06:00.533Z,15.68
2022-10-18T20:08:28.061Z,15.70
2022-10-18T20:10:54.871Z,15.67
2022-10-18T20:13:22.469Z,15.54
2022-10-18T20:15:49.872Z,15.21
2022-10-18T20:18:17.207Z,15.34
2022-10-18T20:20:47.239Z,15.40
2022-10-18T20:23:15.233Z,15.46
2022-10-18T20:25:41.539Z,15.41
2022-10-18T20:28:07.926Z,15.32
2022-10-18T20:30:34.437Z,15.18
2022-10-18T20:33:00.827Z,15.07
2022-10-18T20:35:27.208Z,15.17
2022-10-18T20:37:53.593Z,15.20
2022-10-18T20:40:20.009Z,15.21
2022-10-18T20:42:46.374Z,15.11
2022-10-18T20:45:12.810Z,15.16
2022-10-18T20:47:39.237Z,15.21
2022-10-18T20:50:05.731Z,15.19
2022-10-18T20:52:32.046Z,15.07
2022-10-18T20:54:58.367Z,14.97
2022-10-18T20:57:24.715Z,14.83
2022-10-18T20:59:51.026Z,14.98
2022-10-18T21:02:17.365Z,15.08
2022-10-18T21:04:43.726Z,15.12
2022-10-18T21:07:10.056Z,15.12
2022-10-18T21:09:36.371Z,15.08
2022-10-18T21:12:02.773Z,14.87
2022-10-18T21:14:29.327Z,14.73
2022-10-18T21:16:55.765Z,14.85
2022-10-18T21:19:26.680Z,14.77
2022-10-18T21:21:54.564Z,14.63
2022-10-18T21:24:21.699Z,14.52
2022-10-18T21:26:48.308Z,14.57
2022-10-18T21:29:19.348Z,14.63
2022-10-18T21:31:48.226Z,14.67
2022-10-18T21:34:15.848Z,14.39
2022-10-18T21:36:43.074Z,14.36
2022-10-18T21:39:12.777Z,14.42
2022-10-18T21:41:39.236Z,14.34
2022-10-18T21:44:08.364Z,14.48
2022-10-18T21:46:37.533Z,14.33
2022-10-18T21:49:03.911Z,14.10
2022-10-18T21:51:30.344Z,14.08
2022-10-18T21:53:57.432Z,14.06
2022-10-18T21:56:24.996Z,14.11
2022-10-18T21:58:51.327Z,14.06
2022-10-18T22:01:19.622Z,14.07
2022-10-18T22:03:47.604Z,14.02
2022-10-18T22:06:14.953Z,13.97
2022-10-18T22:08:42.060Z,13.97
2022-10-18T22:11:08.442Z,13.93
2022-10-18T22:13:34.899Z,13.96
2022-10-18T22:16:02.564Z,13.85
2022-10-18T22:18:29.003Z,13.76
2022-10-18T22:20:56.615Z,13.70
2022-10-18T22:23:23.113Z,13.73
2022-10-18T22:25:49.677Z,13.69
2022-10-18T22:28:16.576Z,13.45
2022-10-18T22:30:42.964Z,13.46
2022-10-18T22:33:09.307Z,13.43
2022-10-18T22:35:35.661Z,13.43
2022-10-18T22:38:02.022Z,13.50
2022-10-18T22:40:28.341Z,13.47
2022-10-18T22:42:54.670Z,13.39
2022-10-18T22:45:20.997Z,13.33
2022-10-18T22:47:47.370Z,13.31
2022-10-18T22:50:13.686Z,13.29
2022-10-18T22:52:40.058Z,13.27
2022-10-18T22:55:07.764Z,13.26
2022-10-18T22:57:34.176Z,13.11
2022-10-18T23:00:00.500Z,13.08
2022-10-18T23:02:26.820Z,13.09
2022-10-18T23:04:53.132Z,13.00
2022-10-18T23:07:19.444Z,12.95
2022-10-18T23:09:45.803Z,12.93
2022-10-18T23:12:12.137Z,12.92
2022-10-18T23:14:38.530Z,12.93
2022-10-18T23:17:04.922Z,12.86
2022-10-18T23:19:31.263Z,12.77
2022-10-18T23:21:57.672Z,12.87
2022-10-18T23:24:24.011Z,12.90
2022-10-18T23:26:50.378Z,12.70
2022-10-18T23:29:16.873Z,12.76
2022-10-18T23:31:43.209Z,12.87
2022-10-18T23:34:10.067Z,12.88
2022-10-18T23:36:36.492Z,12.88
2022-10-18T23:39:03.923Z,12.77
2022-10-18T23:41:30.481Z,12.69
2022-10-18T23:43:56.939Z,12.64
2022-10-18T23:46:23.654Z,12.60
2022-10-18T23:48:50.043Z,12.62
2022-10-18T23:51:16.887Z,12.63
2022-10-18T23:53:43.323Z,12.60
2022-10-18T23:56:11.664Z,12.63
2022-10-18T23:58:38.678Z,12.67
